FMNMFMNN

Guest
Details From FMNM - PHILIBERT TSIRANANA
To FMNN - FASCENE
Flight Number -
Tags generated
Created
Modified
Stats Distance 206 nm / 382 km
Max Altitude 20,600 ft / 6,279 m
Waypoints 4
Social Downloads 1
Likes 0
Share VATSIM

Download

Looking for another format? Having issues loading an existing format? Contact us
Advertisement - Login to hide

Notes

Basic altitude profile: - Ascent Rate: 2500ft/min - Ascent Speed: 250kts - Cruise Altitude: 12000ft - Cruise Speed: 250kts - Descent Rate: 1500ft/min - Descent Speed: 250kts Options: - Use NATs: yes - Use PACOTS: yes - Use low airways: yes - Use high airways: yes

Route

FMNM TIKAN ANDIL FMNN

ID Type Via Altitude Latitude Longitude Leg Dist Tot Dist Heading (true) Name
O FMNM APT - 0 ft / 0 m -15.66714˚ 46.35183˚ - 0 nm - PHILIBERT TSIRANANA
TIKAN FIX - 20,600 ft / 6,279 m -14.65833˚ 46.27806˚ 60 nm 60 nm 356° / 356° -
ANDIL FIX - 6,400 ft / 1,951 m -13.71306˚ 48.00611˚ 115 nm 176 nm 61° / 60° -
O FMNN APT - 0 ft / 0 m -13.31207˚ 48.31482˚ 30 nm 206 nm 37° / 37° FASCENE

Altitude Profile

Advertisement - Login to hide

Weather


0- 5 10 15 20 25 30 35+ Temperature / ° C

Clouds and Precipitation
Forecast for 2017-12-14 06:00 UTC. Updated an hour ago

Ground ~20,000 ft ~40,000 ft Winds

FMNM

Details ICAO FMNM (MJN)
Name PHILIBERT TSIRANANA
Region Comoros, Mayotte, Réunion and Madagascar
Timezone Indian/Antananarivo (UTC+3.0)
Stats Elevation 87 ft / 27 m (AMSL)
Location -15.667144° 46.351829°
Runways 1
Magnetic Variation 11.235° W

METAR

FMNM 140200Z 14004KT 9999 FEW020CB SCT040 25/23 Q1012

Decode

TAF

TAF FMNM 132300Z 1400/1424 16005KT 9999 FEW007 SCT020CB BKN040 PROB40 TEMPO 1400/1408 4500 TSRA BECMG 1405/1408 30010KT

Decode

Departure Runways

ID Width Length Bearing (true) Bearing (mag) Surface Threshold Offset Overrun Length
14 148 ft / 45 m 7,235 ft / 2,205 m 132.37° 143.60° Asphalt 0 ft / 0 m 98 ft / 30 m
32 148 ft / 45 m 7,235 ft / 2,205 m 312.37° 323.60° Asphalt 0 ft / 0 m 98 ft / 30 m

FMNN

Details ICAO FMNN (NOS)
Name FASCENE
Region Comoros, Mayotte, Réunion and Madagascar
Timezone Indian/Antananarivo (UTC+3.0)
Stats Elevation 36 ft / 11 m (AMSL)
Location -13.312067° 48.314821°
Runways 1
Magnetic Variation 9.465° W

METAR

Not found

TAF

TAF FMNN 132300Z 1400/1424 12005KT 9999 FEW007 SCT020CB BKN040 PROB40 TEMPO 1400/1406 4500 TSRA BECMG 1405/1408 30010KT PROB40 TEMPO 1415/1424 4500 TSRA

Decode

Destination Runways

ID Width Length Bearing (true) Bearing (mag) Surface Threshold Offset Overrun Length
05 148 ft / 45 m 7,220 ft / 2,201 m 42.86° 52.33° Asphalt 0 ft / 0 m 164 ft / 50 m
23 148 ft / 45 m 7,220 ft / 2,201 m 222.85° 232.32° Asphalt 0 ft / 0 m 197 ft / 60 m

Popular Alternatives